Time;durP1;ratioP1;P1;durP2;ratioP2;P2;SDS_P1;SDS_P2;PMS_P1;PMS_P2;Temp;Humidity;BMP_temperature;BMP_pressure;BME280_temperature;BME280_humidity;BME280_pressure;Samples;Min_cycle;Max_cycle;Signal;HPM_P1;HPM_P2
2021/03/14 00:01:35;;;;;;;12.07;1.87;;;;;;;;;;5033389;28;20233;-68
2021/03/14 00:04:00;;;;;;;11.70;2.10;;;;;;;;;;5028594;28;20210;-69
2021/03/14 00:06:25;;;;;;;11.70;2.20;;;;;;;;;;5036115;28;20185;-69
2021/03/14 00:08:51;;;;;;;13.17;2.10;;;;;;;;;;5020293;28;20248;-69
2021/03/14 00:11:16;;;;;;;19.03;2.53;;;;;;;;;;5033412;28;20574;-70
2021/03/14 00:13:41;;;;;;;10.57;2.07;;;;;;;;;;5025857;28;20197;-68
2021/03/14 00:16:08;;;;;;;12.30;1.97;;;;;;;;;;5040343;28;20177;-68
2021/03/14 00:18:37;;;;;;;18.80;2.30;;;;;;;;;;5033496;28;20367;-68
2021/03/14 00:21:04;;;;;;;11.70;1.80;;;;;;;;;;5030283;28;20206;-68
2021/03/14 00:23:29;;;;;;;5.73;2.00;;;;;;;;;;5036131;28;20256;-68
2021/03/14 00:25:56;;;;;;;10.87;2.57;;;;;;;;;;5030585;28;20182;-68
2021/03/14 00:28:22;;;;;;;15.07;2.30;;;;;;;;;;5036937;28;20569;-68
2021/03/14 00:30:47;;;;;;;14.57;2.47;;;;;;;;;;5030379;28;20614;-68
2021/03/14 00:33:13;;;;;;;12.03;2.00;;;;;;;;;;5037326;28;20194;-68
2021/03/14 00:35:39;;;;;;;17.00;1.90;;;;;;;;;;5027331;28;20194;-68
2021/03/14 00:38:04;;;;;;;17.83;3.70;;;;;;;;;;5033711;28;20251;-68
2021/03/14 00:40:30;;;;;;;13.27;2.20;;;;;;;;;;5026826;28;20240;-68
2021/03/14 00:43:00;;;;;;;17.43;2.50;;;;;;;;;;5036394;28;20234;-68
2021/03/14 00:45:26;;;;;;;11.73;2.03;;;;;;;;;;5026140;28;20182;-68
2021/03/14 00:47:52;;;;;;;14.97;2.50;;;;;;;;;;5040599;28;20197;-68
2021/03/14 00:50:18;;;;;;;10.53;2.20;;;;;;;;;;5031532;28;20174;-68
2021/03/14 00:52:43;;;;;;;14.30;2.27;;;;;;;;;;5041131;28;20189;-68
2021/03/14 00:55:09;;;;;;;12.30;2.13;;;;;;;;;;5026998;28;20185;-69
2021/03/14 00:57:34;;;;;;;18.83;2.50;;;;;;;;;;5038365;28;20233;-68
2021/03/14 00:59:59;;;;;;;14.43;2.47;;;;;;;;;;5036615;28;20740;-68
2021/03/14 01:02:25;;;;;;;9.90;2.17;;;;;;;;;;5025929;28;20220;-68
2021/03/14 01:04:50;;;;;;;11.27;2.17;;;;;;;;;;5038553;28;20236;-68
2021/03/14 01:07:16;;;;;;;12.83;2.20;;;;;;;;;;5024597;28;20533;-68
2021/03/14 01:09:41;;;;;;;10.83;2.20;;;;;;;;;;5038874;28;20190;-68
2021/03/14 01:12:07;;;;;;;15.87;2.27;;;;;;;;;;5026175;28;20529;-68
2021/03/14 01:14:33;;;;;;;14.43;2.20;;;;;;;;;;5034241;28;20661;-68
2021/03/14 01:16:59;;;;;;;14.40;2.03;;;;;;;;;;5033069;28;20227;-68
2021/03/14 01:19:24;;;;;;;14.20;1.90;;;;;;;;;;5039250;28;20225;-68
2021/03/14 01:21:50;;;;;;;9.53;2.27;;;;;;;;;;5030371;28;20209;-68
2021/03/14 01:24:15;;;;;;;12.20;2.37;;;;;;;;;;5037535;28;20279;-68
2021/03/14 01:26:40;;;;;;;16.23;2.47;;;;;;;;;;5030668;28;20188;-68
2021/03/14 01:29:06;;;;;;;10.93;2.30;;;;;;;;;;5041034;28;20205;-68
2021/03/14 01:31:31;;;;;;;11.90;2.03;;;;;;;;;;5037133;28;20511;-68
2021/03/14 01:33:57;;;;;;;16.20;2.53;;;;;;;;;;5023236;28;20263;-68
2021/03/14 01:36:22;;;;;;;9.77;1.70;;;;;;;;;;5034893;28;20190;-68
2021/03/14 01:38:47;;;;;;;15.60;2.50;;;;;;;;;;5026534;28;20230;-68
2021/03/14 01:41:13;;;;;;;13.63;2.10;;;;;;;;;;5038574;28;20206;-68
2021/03/14 01:43:38;;;;;;;16.37;2.30;;;;;;;;;;5024762;28;20224;-68
2021/03/14 01:46:04;;;;;;;13.73;2.60;;;;;;;;;;5040615;28;20241;-68
2021/03/14 01:48:32;;;;;;;16.07;2.47;;;;;;;;;;5023076;28;20692;-68
2021/03/14 01:50:58;;;;;;;16.10;2.17;;;;;;;;;;5038154;28;20607;-68
2021/03/14 01:53:23;;;;;;;12.13;2.03;;;;;;;;;;5030854;28;20232;-68
2021/03/14 01:55:49;;;;;;;14.17;2.50;;;;;;;;;;5041514;28;20189;-68
2021/03/14 01:58:16;;;;;;;13.00;2.37;;;;;;;;;;5038429;28;20598;-69
2021/03/14 02:00:41;;;;;;;12.07;1.97;;;;;;;;;;5032402;28;20213;-68
2021/03/14 02:03:07;;;;;;;16.37;2.20;;;;;;;;;;5045646;28;20516;-68
2021/03/14 02:05:32;;;;;;;16.80;2.40;;;;;;;;;;5034548;28;20230;-68
2021/03/14 02:07:58;;;;;;;19.17;3.40;;;;;;;;;;5037119;28;20579;-68
2021/03/14 02:10:30;;;;;;;17.00;3.13;;;;;;;;;;5031278;28;20200;-68
2021/03/14 02:13:00;;;;;;;22.83;2.73;;;;;;;;;;5035982;28;20664;-68
2021/03/14 02:15:27;;;;;;;17.90;3.40;;;;;;;;;;5038780;28;20528;-68
2021/03/14 02:17:55;;;;;;;18.87;2.17;;;;;;;;;;5038761;28;20621;-68
2021/03/14 02:20:24;;;;;;;16.40;2.67;;;;;;;;;;5028691;28;20211;-68
2021/03/14 02:22:56;;;;;;;14.70;2.20;;;;;;;;;;5040552;28;20675;-68
2021/03/14 02:25:35;;;;;;;14.80;2.43;;;;;;;;;;5032334;28;20182;-68
2021/03/14 02:28:01;;;;;;;17.07;2.17;;;;;;;;;;5040575;28;20255;-68
2021/03/14 02:30:27;;;;;;;16.67;2.80;;;;;;;;;;5028979;28;20193;-68
2021/03/14 02:32:53;;;;;;;16.67;2.50;;;;;;;;;;5041002;28;20656;-68
2021/03/14 02:35:20;;;;;;;14.70;2.50;;;;;;;;;;5039373;28;20192;-68
2021/03/14 02:37:47;;;;;;;22.40;3.90;;;;;;;;;;5035314;28;20170;-68
2021/03/14 02:40:13;;;;;;;13.47;2.50;;;;;;;;;;5041968;28;20222;-69
2021/03/14 02:42:41;;;;;;;13.57;2.27;;;;;;;;;;5028672;28;20207;-68
2021/03/14 02:45:09;;;;;;;15.00;2.10;;;;;;;;;;5043594;28;20621;-68
2021/03/14 02:47:34;;;;;;;11.23;2.47;;;;;;;;;;5031320;28;20271;-68
2021/03/14 02:50:02;;;;;;;10.60;2.07;;;;;;;;;;5035582;28;20266;-68
2021/03/14 02:52:28;;;;;;;21.47;3.00;;;;;;;;;;5032138;28;20190;-68
2021/03/14 02:54:55;;;;;;;12.07;2.40;;;;;;;;;;5037692;28;20181;-68
2021/03/14 02:57:22;;;;;;;16.23;2.70;;;;;;;;;;5031046;28;20218;-68
2021/03/14 02:59:52;;;;;;;12.13;2.30;;;;;;;;;;5032384;28;20206;-68
2021/03/14 03:02:18;;;;;;;16.67;2.67;;;;;;;;;;5029145;28;20227;-68
2021/03/14 03:04:45;;;;;;;10.80;2.97;;;;;;;;;;5036660;28;20221;-68
2021/03/14 03:07:13;;;;;;;15.23;2.93;;;;;;;;;;5028616;28;24292;-68
2021/03/14 03:09:39;;;;;;;14.33;2.87;;;;;;;;;;5033503;28;20178;-68
2021/03/14 03:12:05;;;;;;;17.80;2.40;;;;;;;;;;5028151;28;20637;-68
2021/03/14 03:14:32;;;;;;;9.17;2.40;;;;;;;;;;5036508;28;20285;-69
2021/03/14 03:16:58;;;;;;;15.07;2.10;;;;;;;;;;5037451;28;20181;-69
2021/03/14 03:19:25;;;;;;;20.27;3.27;;;;;;;;;;5030121;28;21303;-69
2021/03/14 03:21:51;;;;;;;16.17;2.57;;;;;;;;;;5037271;28;20364;-69
2021/03/14 03:24:16;;;;;;;15.93;1.90;;;;;;;;;;5031423;28;20197;-69
2021/03/14 03:26:46;;;;;;;12.13;2.50;;;;;;;;;;5039017;28;20548;-69
2021/03/14 03:29:13;;;;;;;19.50;2.73;;;;;;;;;;5031182;28;20213;-69
2021/03/14 03:31:39;;;;;;;14.03;2.57;;;;;;;;;;5041793;28;20685;-68
2021/03/14 03:34:06;;;;;;;12.43;2.60;;;;;;;;;;5029262;28;20184;-68
2021/03/14 03:36:31;;;;;;;15.20;2.73;;;;;;;;;;5037232;28;20200;-69
2021/03/14 03:38:57;;;;;;;14.67;2.30;;;;;;;;;;5029951;28;20719;-69
2021/03/14 03:41:27;;;;;;;18.10;2.80;;;;;;;;;;5044022;28;20217;-69
2021/03/14 03:43:54;;;;;;;17.57;2.60;;;;;;;;;;5031489;28;23427;-69
2021/03/14 03:46:20;;;;;;;9.80;1.97;;;;;;;;;;5036234;28;20189;-69
2021/03/14 03:48:51;;;;;;;17.73;2.43;;;;;;;;;;5033631;28;20596;-68
2021/03/14 03:51:20;;;;;;;16.93;2.50;;;;;;;;;;5033684;28;20292;-69
2021/03/14 03:53:48;;;;;;;17.57;2.80;;;;;;;;;;5032594;28;20597;-69
2021/03/14 03:56:14;;;;;;;11.27;1.97;;;;;;;;;;5033673;28;20467;-69
2021/03/14 03:58:40;;;;;;;14.80;2.23;;;;;;;;;;5043327;28;20786;-69
2021/03/14 04:01:09;;;;;;;14.33;2.20;;;;;;;;;;5028019;28;20248;-69
2021/03/14 04:03:37;;;;;;;14.37;2.63;;;;;;;;;;5037941;28;20206;-68
2021/03/14 04:06:04;;;;;;;12.00;2.47;;;;;;;;;;5035083;28;20196;-68
2021/03/14 04:08:31;;;;;;;19.20;2.80;;;;;;;;;;5039436;28;20198;-69
2021/03/14 04:10:57;;;;;;;14.23;2.50;;;;;;;;;;5028548;28;20662;-69
2021/03/14 04:13:25;;;;;;;10.93;2.30;;;;;;;;;;5040929;28;20211;-69
2021/03/14 04:15:50;;;;;;;12.27;2.23;;;;;;;;;;5029675;28;20601;-69
2021/03/14 04:18:17;;;;;;;11.57;2.30;;;;;;;;;;5036929;28;20197;-71
2021/03/14 04:20:43;;;;;;;5.80;1.23;;;;;;;;;;5032648;28;20217;-71
2021/03/14 04:23:18;;;;;;;8.23;1.30;;;;;;;;;;5038262;28;20621;-72
2021/03/14 04:25:44;;;;;;;6.27;0.90;;;;;;;;;;5026460;28;20280;-71
2021/03/14 04:28:10;;;;;;;4.30;1.03;;;;;;;;;;5041358;28;20709;-71
2021/03/14 04:30:36;;;;;;;2.10;0.80;;;;;;;;;;5038837;28;20272;-72
2021/03/14 04:33:02;;;;;;;7.20;1.03;;;;;;;;;;5029703;28;20202;-71
2021/03/14 04:35:28;;;;;;;4.03;1.13;;;;;;;;;;5036987;28;20239;-71
2021/03/14 04:37:55;;;;;;;3.27;0.90;;;;;;;;;;5027039;28;20542;-70
2021/03/14 04:40:21;;;;;;;3.47;0.80;;;;;;;;;;5035236;28;20252;-69
2021/03/14 04:42:48;;;;;;;4.23;1.10;;;;;;;;;;5021959;28;20296;-69
2021/03/14 04:45:14;;;;;;;4.30;1.10;;;;;;;;;;5032387;28;20262;-69
2021/03/14 04:47:41;;;;;;;6.87;1.37;;;;;;;;;;5031481;28;20507;-69
2021/03/14 04:50:08;;;;;;;5.03;1.10;;;;;;;;;;5034463;28;20186;-69
2021/03/14 04:52:34;;;;;;;4.87;1.20;;;;;;;;;;5035432;28;20658;-69
2021/03/14 04:55:00;;;;;;;5.03;1.40;;;;;;;;;;5039371;28;20200;-69
2021/03/14 04:57:27;;;;;;;3.93;1.33;;;;;;;;;;5031335;28;20305;-69
2021/03/14 04:59:54;;;;;;;6.27;1.60;;;;;;;;;;5033643;28;20185;-69
2021/03/14 05:02:21;;;;;;;6.57;2.00;;;;;;;;;;5035012;28;20332;-69
2021/03/14 05:04:48;;;;;;;3.07;1.90;;;;;;;;;;5023724;28;20614;-69
2021/03/14 05:07:14;;;;;;;7.33;2.17;;;;;;;;;;5029790;28;20594;-70
2021/03/14 05:09:41;;;;;;;9.57;2.47;;;;;;;;;;5023133;28;20201;-72
2021/03/14 05:12:08;;;;;;;12.80;2.40;;;;;;;;;;5035174;28;20178;-73
2021/03/14 05:14:35;;;;;;;10.17;3.10;;;;;;;;;;5034093;28;20254;-72
2021/03/14 05:17:02;;;;;;;7.93;3.00;;;;;;;;;;5033151;28;20186;-72
2021/03/14 05:19:27;;;;;;;7.40;2.57;;;;;;;;;;5028452;28;20493;-73
2021/03/14 05:21:53;;;;;;;8.53;3.07;;;;;;;;;;5033576;28;20205;-72
2021/03/14 05:24:18;;;;;;;7.13;2.80;;;;;;;;;;5025163;28;20193;-71
2021/03/14 05:26:45;;;;;;;8.63;2.97;;;;;;;;;;5034299;28;20186;-71
2021/03/14 05:29:13;;;;;;;7.23;3.00;;;;;;;;;;5024672;28;23206;-71
2021/03/14 05:31:39;;;;;;;8.30;2.40;;;;;;;;;;5030819;28;20197;-71
2021/03/14 05:34:13;;;;;;;4.03;2.20;;;;;;;;;;5026289;28;20190;-71
2021/03/14 05:36:39;;;;;;;10.27;2.63;;;;;;;;;;5035380;28;20239;-69
2021/03/14 05:39:06;;;;;;;5.50;2.07;;;;;;;;;;5036763;28;20226;-70
2021/03/14 05:41:32;;;;;;;13.23;2.00;;;;;;;;;;5033118;28;20329;-70
2021/03/14 05:43:57;;;;;;;5.33;1.57;;;;;;;;;;5035291;28;20212;-71
2021/03/14 05:46:23;;;;;;;3.97;1.40;;;;;;;;;;5027555;28;20193;-73
2021/03/14 05:48:48;;;;;;;5.53;1.90;;;;;;;;;;5037158;28;20634;-71
2021/03/14 05:51:20;;;;;;;4.67;1.50;;;;;;;;;;5028919;28;20189;-71
2021/03/14 05:53:49;;;;;;;5.57;2.03;;;;;;;;;;5037902;28;20355;-73
2021/03/14 05:56:14;;;;;;;5.50;1.70;;;;;;;;;;5030313;28;20224;-72
2021/03/14 05:58:40;;;;;;;5.97;1.73;;;;;;;;;;5040896;28;20197;-70
2021/03/14 06:01:10;;;;;;;6.27;1.67;;;;;;;;;;5028308;28;20202;-71
2021/03/14 06:03:37;;;;;;;4.30;1.70;;;;;;;;;;5029326;28;20214;-71
2021/03/14 06:06:06;;;;;;;4.53;1.70;;;;;;;;;;5028213;28;21452;-71
2021/03/14 06:08:32;;;;;;;5.67;1.90;;;;;;;;;;5040543;28;20244;-71
2021/03/14 06:11:02;;;;;;;5.97;2.13;;;;;;;;;;5034310;28;20537;-71
2021/03/14 06:13:28;;;;;;;5.13;1.70;;;;;;;;;;5031070;28;20659;-71
2021/03/14 06:15:53;;;;;;;5.73;2.20;;;;;;;;;;5038039;28;20228;-70
2021/03/14 06:18:19;;;;;;;6.50;2.13;;;;;;;;;;5025522;28;20203;-70
2021/03/14 06:20:45;;;;;;;7.97;1.70;;;;;;;;;;5036538;28;20516;-71
2021/03/14 06:23:15;;;;;;;7.60;2.27;;;;;;;;;;4334144;28;10000875;-68
2021/03/14 06:25:43;;;;;;;6.23;2.20;;;;;;;;;;5031444;28;20597;-68
2021/03/14 06:28:09;;;;;;;6.43;2.00;;;;;;;;;;5028138;28;20222;-69
2021/03/14 06:30:36;;;;;;;4.03;1.60;;;;;;;;;;5034808;28;20181;-69
2021/03/14 06:33:18;;;;;;;6.03;2.13;;;;;;;;;;5025902;28;20227;-69
2021/03/14 06:35:54;;;;;;;4.30;1.90;;;;;;;;;;5034342;28;20217;-69
2021/03/14 06:38:24;;;;;;;3.67;1.90;;;;;;;;;;5031665;28;20546;-69
2021/03/14 06:40:53;;;;;;;8.90;1.80;;;;;;;;;;5039737;28;20238;-69
2021/03/14 06:43:18;;;;;;;9.40;1.90;;;;;;;;;;5021511;28;20712;-69
2021/03/14 06:45:45;;;;;;;5.67;1.90;;;;;;;;;;5035118;28;20205;-69
2021/03/14 06:48:10;;;;;;;10.17;2.17;;;;;;;;;;5022960;28;20200;-69
2021/03/14 06:50:40;;;;;;;5.17;1.70;;;;;;;;;;5028631;28;20871;-69
2021/03/14 06:53:17;;;;;;;6.33;1.90;;;;;;;;;;5023322;28;20627;-69
2021/03/14 06:55:44;;;;;;;4.83;1.90;;;;;;;;;;5033811;28;20193;-69
2021/03/14 06:58:23;;;;;;;11.50;1.83;;;;;;;;;;5030013;28;20252;-69
2021/03/14 07:01:12;;;;;;;9.37;2.00;;;;;;;;;;5034814;28;20228;-70
2021/03/14 07:03:41;;;;;;;7.87;2.53;;;;;;;;;;5024052;28;20248;-71
2021/03/14 07:06:27;;;;;;;10.10;2.47;;;;;;;;;;5034619;28;20553;-71
2021/03/14 07:08:54;;;;;;;9.73;2.50;;;;;;;;;;5025276;28;20255;-73
2021/03/14 07:11:32;;;;;;;12.87;2.80;;;;;;;;;;5039989;28;20347;-71
2021/03/14 07:13:58;;;;;;;17.63;3.33;;;;;;;;;;5031228;28;20728;-71
2021/03/14 07:17:08;;;;;;;14.43;3.13;;;;;;;;;;5018466;28;20677;-70
2021/03/14 07:19:33;;;;;;;22.07;3.10;;;;;;;;;;5020366;28;20288;-70
2021/03/14 07:22:11;;;;;;;17.77;2.80;;;;;;;;;;5034482;28;20236;-70
2021/03/14 07:24:36;;;;;;;16.70;3.10;;;;;;;;;;5029953;28;20261;-70
2021/03/14 07:27:04;;;;;;;14.13;3.60;;;;;;;;;;5022405;28;20460;-69
2021/03/14 07:29:31;;;;;;;11.00;2.80;;;;;;;;;;5027959;28;20700;-70
2021/03/14 07:31:58;;;;;;;11.20;3.30;;;;;;;;;;5026759;28;20286;-69
2021/03/14 07:34:25;;;;;;;12.23;3.27;;;;;;;;;;5029899;28;20239;-69
2021/03/14 07:36:52;;;;;;;13.17;3.10;;;;;;;;;;5028253;28;20212;-69
2021/03/14 07:39:18;;;;;;;10.53;2.70;;;;;;;;;;5028451;28;20686;-69
2021/03/14 07:41:45;;;;;;;11.80;2.83;;;;;;;;;;5023022;28;20714;-69
2021/03/14 07:44:11;;;;;;;11.47;2.83;;;;;;;;;;5034094;28;20224;-69
2021/03/14 07:46:41;;;;;;;15.80;3.47;;;;;;;;;;5023119;28;20217;-69
2021/03/14 07:49:07;;;;;;;15.00;2.70;;;;;;;;;;5030264;28;20205;-69
2021/03/14 07:51:36;;;;;;;10.83;2.83;;;;;;;;;;5019830;28;20186;-69
2021/03/14 07:54:05;;;;;;;9.00;3.20;;;;;;;;;;5032721;28;20194;-70
2021/03/14 07:56:36;;;;;;;16.73;3.60;;;;;;;;;;5021232;28;20185;-69
2021/03/14 07:59:02;;;;;;;14.73;3.17;;;;;;;;;;5034816;28;20190;-70
2021/03/14 08:01:31;;;;;;;15.77;4.93;;;;;;;;;;5034887;28;20240;-69
2021/03/14 08:03:57;;;;;;;15.07;3.60;;;;;;;;;;5022786;28;20201;-69
2021/03/14 08:06:41;;;;;;;16.13;4.07;;;;;;;;;;5026512;28;20659;-70
2021/03/14 08:09:06;;;;;;;11.63;3.83;;;;;;;;;;5018638;28;20661;-69
2021/03/14 08:11:31;;;;;;;12.50;3.30;;;;;;;;;;5027767;28;20522;-69
2021/03/14 08:13:57;;;;;;;13.30;3.00;;;;;;;;;;5018488;28;20197;-70
2021/03/14 08:16:22;;;;;;;12.03;3.43;;;;;;;;;;5026575;28;23954;-70
2021/03/14 08:18:52;;;;;;;17.33;3.73;;;;;;;;;;5020257;28;20182;-70
2021/03/14 08:21:20;;;;;;;16.37;3.53;;;;;;;;;;5027259;28;20681;-69
2021/03/14 08:23:46;;;;;;;18.17;3.80;;;;;;;;;;5018414;28;20501;-69
2021/03/14 08:26:19;;;;;;;17.47;3.80;;;;;;;;;;5029848;28;20234;-70
2021/03/14 08:28:57;;;;;;;15.67;4.20;;;;;;;;;;5019095;28;20215;-69
2021/03/14 08:31:44;;;;;;;13.20;3.57;;;;;;;;;;5026950;28;20904;-69
2021/03/14 08:34:30;;;;;;;13.80;3.50;;;;;;;;;;5019605;28;20201;-69
2021/03/14 08:36:56;;;;;;;14.10;4.50;;;;;;;;;;5027156;28;20277;-69
2021/03/14 08:39:31;;;;;;;12.43;4.10;;;;;;;;;;4999666;28;20551;-70
2021/03/14 08:42:01;;;;;;;15.67;4.57;;;;;;;;;;5024494;28;20223;-70
2021/03/14 08:44:33;;;;;;;23.40;4.70;;;;;;;;;;5017504;28;20240;-69
2021/03/14 08:47:01;;;;;;;14.33;3.97;;;;;;;;;;5023095;28;20216;-69
2021/03/14 08:49:27;;;;;;;17.97;4.57;;;;;;;;;;5017885;28;20189;-69
2021/03/14 08:51:52;;;;;;;17.70;4.53;;;;;;;;;;5032008;28;20543;-69
2021/03/14 08:54:30;;;;;;;15.23;4.50;;;;;;;;;;5018330;28;20197;-69
2021/03/14 08:57:04;;;;;;;18.37;5.13;;;;;;;;;;5027610;28;20286;-69
2021/03/14 08:59:30;;;;;;;17.53;4.20;;;;;;;;;;5025437;28;20203;-70
2021/03/14 09:02:00;;;;;;;15.00;4.67;;;;;;;;;;5017494;28;20744;-69
2021/03/14 09:04:27;;;;;;;13.60;4.30;;;;;;;;;;5026234;28;20222;-69
2021/03/14 09:07:00;;;;;;;14.13;4.03;;;;;;;;;;5018575;28;20675;-69
2021/03/14 09:09:26;;;;;;;17.90;4.73;;;;;;;;;;5023960;28;20283;-69
2021/03/14 09:11:53;;;;;;;17.33;4.53;;;;;;;;;;5019230;28;20191;-69
2021/03/14 09:14:55;;;;;;;16.77;4.50;;;;;;;;;;5030948;28;20204;-69
2021/03/14 09:17:24;;;;;;;14.87;4.40;;;;;;;;;;5015800;28;20205;-71
2021/03/14 09:19:52;;;;;;;13.32;4.38;;;;;;;;;;5031807;28;20197;-69
2021/03/14 09:22:27;;;;;;;16.05;5.72;;;;;;;;;;5023679;28;20215;-68
2021/03/14 09:24:54;;;;;;;15.73;4.53;;;;;;;;;;5036923;28;20279;-69
2021/03/14 09:27:29;;;;;;;21.38;4.80;;;;;;;;;;5028605;28;20186;-69
2021/03/14 09:29:58;;;;;;;15.77;4.15;;;;;;;;;;5035116;28;20232;-69
2021/03/14 09:32:24;;;;;;;17.87;4.23;;;;;;;;;;5025854;28;20236;-68
2021/03/14 09:34:51;;;;;;;14.23;4.27;;;;;;;;;;5032341;28;20685;-68
2021/03/14 09:37:30;;;;;;;14.80;4.60;;;;;;;;;;5020430;28;20272;-68
2021/03/14 09:40:32;;;;;;;13.57;3.83;;;;;;;;;;5035337;28;20529;-69
2021/03/14 09:43:09;;;;;;;20.07;3.97;;;;;;;;;;5018232;28;20206;-69
2021/03/14 09:45:40;;;;;;;14.53;3.50;;;;;;;;;;5028485;28;20224;-69
2021/03/14 09:48:17;;;;;;;19.60;4.67;;;;;;;;;;5022759;28;20628;-68
2021/03/14 09:50:47;;;;;;;14.80;3.90;;;;;;;;;;5031739;28;20668;-68
2021/03/14 09:53:13;;;;;;;12.93;3.87;;;;;;;;;;5021544;28;20201;-68
2021/03/14 09:55:47;;;;;;;13.93;3.77;;;;;;;;;;5031251;28;20197;-68
2021/03/14 09:58:18;;;;;;;11.73;3.27;;;;;;;;;;5021110;28;20212;-68
2021/03/14 10:00:45;;;;;;;14.93;3.77;;;;;;;;;;5030656;28;20221;-67
2021/03/14 10:03:13;;;;;;;13.77;3.10;;;;;;;;;;5022303;28;20659;-68
2021/03/14 10:05:49;;;;;;;13.53;3.20;;;;;;;;;;5033435;28;20178;-68
2021/03/14 10:08:20;;;;;;;12.07;3.47;;;;;;;;;;5024781;28;20185;-68
2021/03/14 10:10:46;;;;;;;9.33;3.40;;;;;;;;;;5029496;28;20178;-68
2021/03/14 10:13:12;;;;;;;14.67;3.37;;;;;;;;;;5030562;28;20179;-68
2021/03/14 10:15:38;;;;;;;21.23;3.40;;;;;;;;;;5021830;28;20247;-68
2021/03/14 10:18:05;;;;;;;9.60;2.90;;;;;;;;;;5028478;28;20178;-68
2021/03/14 10:20:31;;;;;;;12.73;3.03;;;;;;;;;;5030155;28;20182;-69
2021/03/14 10:23:07;;;;;;;14.50;2.97;;;;;;;;;;5031102;28;20356;-69
2021/03/14 10:25:38;;;;;;;9.70;3.70;;;;;;;;;;5025131;28;20181;-69
2021/03/14 10:28:12;;;;;;;11.17;2.93;;;;;;;;;;5039761;28;20969;-69
2021/03/14 10:30:41;;;;;;;11.83;3.07;;;;;;;;;;5032576;28;20226;-69
2021/03/14 10:33:08;;;;;;;10.83;3.20;;;;;;;;;;5036964;28;20181;-68
2021/03/14 10:35:33;;;;;;;12.70;3.10;;;;;;;;;;5030656;28;20182;-69
2021/03/14 10:38:13;;;;;;;11.73;2.97;;;;;;;;;;5037160;28;20192;-69
2021/03/14 10:40:38;;;;;;;12.07;2.80;;;;;;;;;;5030417;28;20315;-67
2021/03/14 10:43:17;;;;;;;11.63;3.00;;;;;;;;;;5033962;28;20279;-67
2021/03/14 10:45:45;;;;;;;13.50;3.10;;;;;;;;;;5029427;28;20196;-68
2021/03/14 10:48:11;;;;;;;12.18;2.70;;;;;;;;;;5033917;28;20190;-68
2021/03/14 10:50:36;;;;;;;8.57;2.80;;;;;;;;;;5029716;28;20247;-68
2021/03/14 10:53:07;;;;;;;14.35;3.05;;;;;;;;;;5019527;28;20569;-68
2021/03/14 10:55:34;;;;;;;8.77;3.00;;;;;;;;;;5032705;28;20177;-68
2021/03/14 10:58:13;;;;;;;10.20;3.20;;;;;;;;;;5022054;28;20534;-68
2021/03/14 11:00:48;;;;;;;11.63;3.10;;;;;;;;;;5032633;28;20712;-68
2021/03/14 11:03:32;;;;;;;15.43;3.85;;;;;;;;;;5019876;28;20198;-68
2021/03/14 11:06:12;;;;;;;13.18;3.00;;;;;;;;;;5029339;28;20557;-68
2021/03/14 11:08:58;;;;;;;9.93;2.72;;;;;;;;;;5023848;28;20635;-67
2021/03/14 11:11:39;;;;;;;10.38;2.55;;;;;;;;;;5030892;28;20712;-67
2021/03/14 11:14:39;;;;;;;10.57;3.15;;;;;;;;;;5029266;28;20197;-68
2021/03/14 11:17:15;;;;;;;3.72;0.73;;;;;;;;;;5011375;28;20204;-68
2021/03/14 11:19:45;;;;;;;2.90;0.90;;;;;;;;;;5029373;28;20208;-69
2021/03/14 11:22:14;;;;;;;2.67;0.93;;;;;;;;;;5024234;28;20216;-69
2021/03/14 11:24:40;;;;;;;3.50;0.90;;;;;;;;;;5030290;28;20732;-70
2021/03/14 11:27:07;;;;;;;3.00;0.73;;;;;;;;;;5029056;28;20563;-70
2021/03/14 11:29:33;;;;;;;6.17;2.03;;;;;;;;;;5019641;28;20205;-69
2021/03/14 11:31:58;;;;;;;6.17;1.43;;;;;;;;;;5032289;28;20192;-69
2021/03/14 11:34:24;;;;;;;3.60;1.00;;;;;;;;;;5020846;28;20220;-69
2021/03/14 11:36:50;;;;;;;5.00;1.10;;;;;;;;;;5031772;28;20185;-69
2021/03/14 11:39:16;;;;;;;2.30;0.87;;;;;;;;;;5021400;28;20221;-69
2021/03/14 11:41:42;;;;;;;5.27;1.20;;;;;;;;;;5031684;28;21046;-69
2021/03/14 11:44:08;;;;;;;4.90;1.53;;;;;;;;;;5014424;28;20627;-69
2021/03/14 11:46:34;;;;;;;4.80;1.50;;;;;;;;;;5027487;28;20197;-69
2021/03/14 11:48:59;;;;;;;3.17;1.40;;;;;;;;;;5022832;28;20192;-69
2021/03/14 11:51:25;;;;;;;6.80;1.67;;;;;;;;;;5029666;28;20189;-69
2021/03/14 11:53:51;;;;;;;9.20;2.50;;;;;;;;;;5023523;28;20194;-69
2021/03/14 11:56:16;;;;;;;8.47;1.93;;;;;;;;;;5027320;28;20669;-68
2021/03/14 11:58:42;;;;;;;8.77;2.80;;;;;;;;;;5034730;28;20193;-69
2021/03/14 12:01:07;;;;;;;9.13;2.67;;;;;;;;;;5020316;28;20292;-69
2021/03/14 12:03:33;;;;;;;14.10;2.80;;;;;;;;;;5028909;28;20209;-69
2021/03/14 12:05:58;;;;;;;9.00;2.30;;;;;;;;;;5019037;28;21344;-69
2021/03/14 12:08:24;;;;;;;10.83;3.93;;;;;;;;;;5027030;28;20220;-69
2021/03/14 12:10:49;;;;;;;11.30;3.27;;;;;;;;;;5023260;28;20194;-70
2021/03/14 12:13:14;;;;;;;7.30;2.75;;;;;;;;;;5031925;28;20223;-70
2021/03/14 12:15:40;;;;;;;6.90;2.17;;;;;;;;;;5024972;28;20198;-70
2021/03/14 12:18:05;;;;;;;5.67;2.40;;;;;;;;;;5035249;28;20554;-69
2021/03/14 12:20:30;;;;;;;6.27;1.77;;;;;;;;;;5021906;28;20344;-68
2021/03/14 12:22:56;;;;;;;8.27;1.50;;;;;;;;;;5033751;28;20177;-68
2021/03/14 12:25:21;;;;;;;10.10;1.75;;;;;;;;;;5031584;28;20583;-68
2021/03/14 12:27:47;;;;;;;4.90;1.83;;;;;;;;;;5018961;28;20599;-69
2021/03/14 12:30:13;;;;;;;8.88;1.50;;;;;;;;;;5030470;28;20236;-69
2021/03/14 12:32:39;;;;;;;8.80;1.60;;;;;;;;;;5018336;28;20182;-69
2021/03/14 12:35:05;;;;;;;9.65;1.73;;;;;;;;;;5031698;28;20188;-69
2021/03/14 12:37:30;;;;;;;7.65;1.70;;;;;;;;;;5020948;28;20280;-70
2021/03/14 12:39:55;;;;;;;4.18;1.20;;;;;;;;;;5027549;28;20247;-70
2021/03/14 12:42:21;;;;;;;6.68;1.35;;;;;;;;;;5014330;28;20558;-69
2021/03/14 12:44:46;;;;;;;7.90;1.58;;;;;;;;;;5030712;28;20550;-69
2021/03/14 12:47:11;;;;;;;4.47;0.95;;;;;;;;;;5018336;28;20638;-69
2021/03/14 12:49:37;;;;;;;4.40;1.30;;;;;;;;;;5029121;28;20220;-68
2021/03/14 12:52:02;;;;;;;4.82;1.00;;;;;;;;;;5021498;28;20220;-69
2021/03/14 12:54:27;;;;;;;5.10;1.05;;;;;;;;;;5023065;28;20201;-69
2021/03/14 12:56:53;;;;;;;6.22;1.58;;;;;;;;;;5026567;28;20178;-69
2021/03/14 12:59:18;;;;;;;4.47;1.15;;;;;;;;;;5018692;28;20197;-69
2021/03/14 13:01:43;;;;;;;4.40;1.13;;;;;;;;;;5026459;28;20225;-69
2021/03/14 13:04:10;;;;;;;2.10;0.88;;;;;;;;;;5024378;28;20227;-69
2021/03/14 13:06:35;;;;;;;6.47;1.42;;;;;;;;;;5027146;28;20275;-69
2021/03/14 13:09:01;;;;;;;6.65;1.65;;;;;;;;;;5020623;28;20202;-69
2021/03/14 13:11:26;;;;;;;5.30;1.50;;;;;;;;;;5026488;28;20182;-68
2021/03/14 13:13:51;;;;;;;10.32;1.83;;;;;;;;;;5023529;28;20905;-69
2021/03/14 13:16:17;;;;;;;5.47;1.50;;;;;;;;;;5031396;28;20208;-69
2021/03/14 13:18:42;;;;;;;5.30;1.45;;;;;;;;;;5020734;28;20269;-70
2021/03/14 13:21:07;;;;;;;6.43;1.50;;;;;;;;;;5028399;28;20223;-69
2021/03/14 13:23:34;;;;;;;8.20;1.83;;;;;;;;;;5017304;28;20897;-69
2021/03/14 13:26:01;;;;;;;4.20;1.40;;;;;;;;;;5027367;28;20208;-69
2021/03/14 13:28:27;;;;;;;4.68;1.42;;;;;;;;;;5022862;28;20287;-69
2021/03/14 13:30:52;;;;;;;7.53;1.60;;;;;;;;;;5024079;28;20174;-67
2021/03/14 13:33:17;;;;;;;3.13;1.25;;;;;;;;;;5027960;28;20194;-67
2021/03/14 13:35:43;;;;;;;4.60;1.23;;;;;;;;;;5022538;28;20201;-69
2021/03/14 13:38:08;;;;;;;5.80;1.27;;;;;;;;;;5029848;28;20669;-68
2021/03/14 13:40:34;;;;;;;9.40;1.58;;;;;;;;;;5018620;28;20221;-68
2021/03/14 13:42:59;;;;;;;8.35;1.77;;;;;;;;;;5033282;28;20544;-68
2021/03/14 13:45:25;;;;;;;5.30;1.30;;;;;;;;;;5013494;28;20320;-68
2021/03/14 13:47:50;;;;;;;7.38;1.38;;;;;;;;;;5028975;28;20182;-68
2021/03/14 13:50:16;;;;;;;7.45;1.38;;;;;;;;;;5015528;28;20272;-68
2021/03/14 13:52:41;;;;;;;6.65;1.33;;;;;;;;;;5033279;28;20576;-69
2021/03/14 13:55:07;;;;;;;7.47;1.05;;;;;;;;;;5020678;28;20170;-69
2021/03/14 13:57:33;;;;;;;5.88;1.38;;;;;;;;;;5032957;28;20182;-69
2021/03/14 13:59:58;;;;;;;5.40;1.25;;;;;;;;;;5033313;28;20188;-69
2021/03/14 14:02:24;;;;;;;7.43;1.08;;;;;;;;;;5022574;28;20687;-69
2021/03/14 14:04:49;;;;;;;5.65;1.25;;;;;;;;;;5029798;28;20220;-69
2021/03/14 14:07:15;;;;;;;2.97;1.00;;;;;;;;;;5022887;28;20189;-69
2021/03/14 14:09:41;;;;;;;5.18;0.73;;;;;;;;;;5034016;28;20182;-69
2021/03/14 14:12:07;;;;;;;3.10;0.80;;;;;;;;;;5023798;28;20650;-69
2021/03/14 14:14:32;;;;;;;2.15;0.60;;;;;;;;;;5032703;28;20234;-69
2021/03/14 14:16:58;;;;;;;4.57;0.95;;;;;;;;;;5023719;28;20701;-69
2021/03/14 14:19:23;;;;;;;5.38;1.08;;;;;;;;;;5029192;28;20739;-68
2021/03/14 14:21:48;;;;;;;6.15;1.08;;;;;;;;;;5026534;28;20531;-69
2021/03/14 14:24:14;;;;;;;7.80;1.38;;;;;;;;;;5035592;28;20188;-69
2021/03/14 14:26:39;;;;;;;4.07;1.10;;;;;;;;;;5036833;28;20278;-69
2021/03/14 14:29:04;;;;;;;4.70;1.08;;;;;;;;;;5022968;28;20198;-69
2021/03/14 14:31:30;;;;;;;5.50;0.82;;;;;;;;;;5033447;28;20194;-69
2021/03/14 14:33:55;;;;;;;7.28;1.00;;;;;;;;;;5033179;28;20189;-69
2021/03/14 14:36:21;;;;;;;3.55;1.10;;;;;;;;;;5040426;28;20679;-69
2021/03/14 14:38:47;;;;;;;9.63;1.63;;;;;;;;;;5028696;28;20570;-69
2021/03/14 14:41:12;;;;;;;9.10;1.48;;;;;;;;;;5037981;28;20204;-69